sensor_id;sensor_type;location;lat;lon;timestamp;temperature;humidity
23335;DHT22;11839;48.598;8.870;2024-03-23T00:55:09;12.00;99.90
23335;DHT22;11839;48.598;8.870;2024-03-23T00:57:36;11.90;99.90
23335;DHT22;11839;48.598;8.870;2024-03-23T01:00:02;11.90;99.90
23335;DHT22;11839;48.598;8.870;2024-03-23T01:02:31;11.90;99.90
23335;DHT22;11839;48.598;8.870;2024-03-23T01:04:57;11.80;99.90
23335;DHT22;11839;48.598;8.870;2024-03-23T01:07:23;11.70;99.90
23335;DHT22;11839;48.598;8.870;2024-03-23T01:09:49;11.50;99.90
23335;DHT22;11839;48.598;8.870;2024-03-23T01:12:19;11.60;99.90
23335;DHT22;11839;48.598;8.870;2024-03-23T01:14:45;11.60;99.90
23335;DHT22;11839;48.598;8.870;2024-03-23T01:17:11;11.60;99.90
23335;DHT22;11839;48.598;8.870;2024-03-23T01:19:37;11.80;99.90
23335;DHT22;11839;48.598;8.870;2024-03-23T01:22:05;12.00;99.90
23335;DHT22;11839;48.598;8.870;2024-03-23T01:24:30;12.20;99.90
23335;DHT22;11839;48.598;8.870;2024-03-23T01:26:57;12.10;99.90
23335;DHT22;11839;48.598;8.870;2024-03-23T01:29:24;12.30;99.90
23335;DHT22;11839;48.598;8.870;2024-03-23T01:31:51;12.30;99.90
23335;DHT22;11839;48.598;8.870;2024-03-23T01:34:17;12.50;99.90
23335;DHT22;11839;48.598;8.870;2024-03-23T01:36:44;12.60;99.90
23335;DHT22;11839;48.598;8.870;2024-03-23T01:39:11;12.60;99.90
23335;DHT22;11839;48.598;8.870;2024-03-23T01:41:39;12.40;99.90
23335;DHT22;11839;48.598;8.870;2024-03-23T01:44:08;12.50;99.90
23335;DHT22;11839;48.598;8.870;2024-03-23T01:46:36;12.40;99.90
23335;DHT22;11839;48.598;8.870;2024-03-23T01:49:03;12.40;99.90
23335;DHT22;11839;48.598;8.870;2024-03-23T01:51:30;12.30;99.90
23335;DHT22;11839;48.598;8.870;2024-03-23T01:53:57;12.30;99.90
23335;DHT22;11839;48.598;8.870;2024-03-23T01:56:26;12.40;99.90
23335;DHT22;11839;48.598;8.870;2024-03-23T01:58:52;12.30;99.90
23335;DHT22;11839;48.598;8.870;2024-03-23T02:01:18;12.00;99.90
23335;DHT22;11839;48.598;8.870;2024-03-23T02:03:46;12.10;99.90
23335;DHT22;11839;48.598;8.870;2024-03-23T02:06:12;12.10;99.90
23335;DHT22;11839;48.598;8.870;2024-03-23T02:08:39;12.00;99.90
23335;DHT22;11839;48.598;8.870;2024-03-23T02:11:06;11.90;99.90
23335;DHT22;11839;48.598;8.870;2024-03-23T02:13:32;12.00;99.90
23335;DHT22;11839;48.598;8.870;2024-03-23T02:15:59;11.80;99.90
23335;DHT22;11839;48.598;8.870;2024-03-23T02:18:24;12.00;99.90
23335;DHT22;11839;48.598;8.870;2024-03-23T02:20:52;11.90;99.90
23335;DHT22;11839;48.598;8.870;2024-03-23T02:23:19;11.80;99.90
23335;DHT22;11839;48.598;8.870;2024-03-23T02:25:46;11.80;99.90
23335;DHT22;11839;48.598;8.870;2024-03-23T02:28:12;11.60;99.90
23335;DHT22;11839;48.598;8.870;2024-03-23T02:30:39;11.70;99.90
23335;DHT22;11839;48.598;8.870;2024-03-23T02:33:05;11.70;99.90
23335;DHT22;11839;48.598;8.870;2024-03-23T02:35:32;11.60;99.90
23335;DHT22;11839;48.598;8.870;2024-03-23T02:37:58;11.60;99.90
23335;DHT22;11839;48.598;8.870;2024-03-23T02:40:27;11.70;99.90
23335;DHT22;11839;48.598;8.870;2024-03-23T02:42:54;11.70;99.90
23335;DHT22;11839;48.598;8.870;2024-03-23T02:45:19;11.90;99.90
23335;DHT22;11839;48.598;8.870;2024-03-23T02:47:46;12.00;99.90
23335;DHT22;11839;48.598;8.870;2024-03-23T02:50:12;12.20;99.90
23335;DHT22;11839;48.598;8.870;2024-03-23T02:52:40;12.10;99.90
23335;DHT22;11839;48.598;8.870;2024-03-23T02:55:07;12.10;99.90
23335;DHT22;11839;48.598;8.870;2024-03-23T02:57:35;12.20;99.90
23335;DHT22;11839;48.598;8.870;2024-03-23T03:00:01;12.00;99.90
23335;DHT22;11839;48.598;8.870;2024-03-23T03:02:29;12.00;99.90
23335;DHT22;11839;48.598;8.870;2024-03-23T03:04:54;11.90;99.90
23335;DHT22;11839;48.598;8.870;2024-03-23T03:07:21;12.10;99.90
23335;DHT22;11839;48.598;8.870;2024-03-23T03:09:47;12.00;99.90
23335;DHT22;11839;48.598;8.870;2024-03-23T03:12:14;12.00;99.90
23335;DHT22;11839;48.598;8.870;2024-03-23T03:14:41;12.10;99.90
23335;DHT22;11839;48.598;8.870;2024-03-23T03:17:07;12.20;99.90
23335;DHT22;11839;48.598;8.870;2024-03-23T03:19:34;12.10;99.90
23335;DHT22;11839;48.598;8.870;2024-03-23T03:22:00;12.00;99.90
23335;DHT22;11839;48.598;8.870;2024-03-23T03:24:26;11.90;99.90
23335;DHT22;11839;48.598;8.870;2024-03-23T03:26:53;11.90;99.90
23335;DHT22;11839;48.598;8.870;2024-03-23T03:29:19;11.70;99.90
23335;DHT22;11839;48.598;8.870;2024-03-23T03:31:47;11.60;99.90
23335;DHT22;11839;48.598;8.870;2024-03-23T03:34:13;11.60;99.90
23335;DHT22;11839;48.598;8.870;2024-03-23T03:36:40;11.50;99.90
23335;DHT22;11839;48.598;8.870;2024-03-23T03:39:06;11.60;99.90
23335;DHT22;11839;48.598;8.870;2024-03-23T03:41:32;11.60;99.90
23335;DHT22;11839;48.598;8.870;2024-03-23T03:43:58;11.60;99.90
23335;DHT22;11839;48.598;8.870;2024-03-23T03:46:27;11.70;99.90
23335;DHT22;11839;48.598;8.870;2024-03-23T03:48:54;11.70;99.90
23335;DHT22;11839;48.598;8.870;2024-03-23T03:51:21;11.70;99.90
23335;DHT22;11839;48.598;8.870;2024-03-23T03:53:47;11.80;99.90
23335;DHT22;11839;48.598;8.870;2024-03-23T03:56:13;11.80;99.90
23335;DHT22;11839;48.598;8.870;2024-03-23T03:58:39;11.70;99.90
23335;DHT22;11839;48.598;8.870;2024-03-23T04:01:06;11.70;99.90
23335;DHT22;11839;48.598;8.870;2024-03-23T04:03:32;11.60;99.90
23335;DHT22;11839;48.598;8.870;2024-03-23T04:06:00;11.50;99.90
23335;DHT22;11839;48.598;8.870;2024-03-23T04:08:26;11.40;99.90
23335;DHT22;11839;48.598;8.870;2024-03-23T04:10:52;11.50;99.90
23335;DHT22;11839;48.598;8.870;2024-03-23T04:13:18;11.50;99.90
23335;DHT22;11839;48.598;8.870;2024-03-23T04:15:45;11.60;99.90
23335;DHT22;11839;48.598;8.870;2024-03-23T04:18:10;11.70;99.90
23335;DHT22;11839;48.598;8.870;2024-03-23T04:20:37;11.60;99.90
23335;DHT22;11839;48.598;8.870;2024-03-23T04:23:04;11.30;99.90
23335;DHT22;11839;48.598;8.870;2024-03-23T04:25:31;11.30;99.90
23335;DHT22;11839;48.598;8.870;2024-03-23T04:27:57;11.30;99.90
23335;DHT22;11839;48.598;8.870;2024-03-23T04:30:26;11.40;99.90
23335;DHT22;11839;48.598;8.870;2024-03-23T04:32:53;11.30;99.90
23335;DHT22;11839;48.598;8.870;2024-03-23T04:35:20;11.60;99.90
23335;DHT22;11839;48.598;8.870;2024-03-23T04:37:47;11.50;99.90
23335;DHT22;11839;48.598;8.870;2024-03-23T04:40:16;11.70;99.90
23335;DHT22;11839;48.598;8.870;2024-03-23T04:42:42;12.00;99.90
23335;DHT22;11839;48.598;8.870;2024-03-23T04:45:09;11.60;99.90
23335;DHT22;11839;48.598;8.870;2024-03-23T04:47:37;11.20;99.90
23335;DHT22;11839;48.598;8.870;2024-03-23T04:50:04;11.40;99.90
23335;DHT22;11839;48.598;8.870;2024-03-23T04:52:31;11.50;99.90
23335;DHT22;11839;48.598;8.870;2024-03-23T04:54:58;11.20;99.90
23335;DHT22;11839;48.598;8.870;2024-03-23T04:57:26;10.60;99.90
23335;DHT22;11839;48.598;8.870;2024-03-23T04:59:52;9.90;99.90
23335;DHT22;11839;48.598;8.870;2024-03-23T05:02:18;9.90;99.90
23335;DHT22;11839;48.598;8.870;2024-03-23T05:04:45;10.30;99.90
23335;DHT22;11839;48.598;8.870;2024-03-23T05:07:11;10.70;99.90
23335;DHT22;11839;48.598;8.870;2024-03-23T05:09:38;11.00;99.90
23335;DHT22;11839;48.598;8.870;2024-03-23T05:12:04;11.10;99.90
23335;DHT22;11839;48.598;8.870;2024-03-23T05:14:32;11.00;99.90
23335;DHT22;11839;48.598;8.870;2024-03-23T05:16:58;10.90;99.90
23335;DHT22;11839;48.598;8.870;2024-03-23T05:19:24;11.00;99.90
23335;DHT22;11839;48.598;8.870;2024-03-23T05:21:51;11.00;99.90
23335;DHT22;11839;48.598;8.870;2024-03-23T05:24:18;10.80;99.90
23335;DHT22;11839;48.598;8.870;2024-03-23T05:26:45;10.60;99.90
23335;DHT22;11839;48.598;8.870;2024-03-23T05:29:11;10.60;99.90
23335;DHT22;11839;48.598;8.870;2024-03-23T05:31:40;10.70;99.90
23335;DHT22;11839;48.598;8.870;2024-03-23T05:34:07;10.70;99.90
23335;DHT22;11839;48.598;8.870;2024-03-23T05:36:34;10.70;99.90
23335;DHT22;11839;48.598;8.870;2024-03-23T05:39:00;10.50;99.90
23335;DHT22;11839;48.598;8.870;2024-03-23T05:41:27;10.50;99.90
23335;DHT22;11839;48.598;8.870;2024-03-23T05:43:52;10.80;99.90
23335;DHT22;11839;48.598;8.870;2024-03-23T05:46:19;10.70;99.90
23335;DHT22;11839;48.598;8.870;2024-03-23T05:48:46;11.00;99.90
23335;DHT22;11839;48.598;8.870;2024-03-23T05:51:13;10.80;99.90
23335;DHT22;11839;48.598;8.870;2024-03-23T05:53:39;10.70;99.90
23335;DHT22;11839;48.598;8.870;2024-03-23T05:56:06;10.70;99.90
23335;DHT22;11839;48.598;8.870;2024-03-23T05:58:32;10.50;99.90
23335;DHT22;11839;48.598;8.870;2024-03-23T06:01:00;10.50;99.90
23335;DHT22;11839;48.598;8.870;2024-03-23T06:03:27;10.20;99.90
23335;DHT22;11839;48.598;8.870;2024-03-23T06:05:55;10.20;99.90
23335;DHT22;11839;48.598;8.870;2024-03-23T06:08:21;10.30;99.90
23335;DHT22;11839;48.598;8.870;2024-03-23T06:10:48;10.60;99.90
23335;DHT22;11839;48.598;8.870;2024-03-23T06:13:15;10.70;99.90
23335;DHT22;11839;48.598;8.870;2024-03-23T06:15:42;10.50;99.90
23335;DHT22;11839;48.598;8.870;2024-03-23T06:18:08;10.10;99.90
23335;DHT22;11839;48.598;8.870;2024-03-23T06:20:35;9.90;99.90
23335;DHT22;11839;48.598;8.870;2024-03-23T06:23:02;9.60;99.90
23335;DHT22;11839;48.598;8.870;2024-03-23T06:25:30;9.70;99.90
23335;DHT22;11839;48.598;8.870;2024-03-23T06:27:56;9.60;99.90
23335;DHT22;11839;48.598;8.870;2024-03-23T06:30:26;9.60;99.90
23335;DHT22;11839;48.598;8.870;2024-03-23T06:32:52;9.60;99.90
23335;DHT22;11839;48.598;8.870;2024-03-23T06:35:19;9.50;99.90
23335;DHT22;11839;48.598;8.870;2024-03-23T06:37:44;9.50;99.90
23335;DHT22;11839;48.598;8.870;2024-03-23T06:40:12;9.40;99.90
23335;DHT22;11839;48.598;8.870;2024-03-23T06:42:38;9.50;99.90
23335;DHT22;11839;48.598;8.870;2024-03-23T06:45:06;9.50;99.90
23335;DHT22;11839;48.598;8.870;2024-03-23T06:47:32;9.60;99.90
23335;DHT22;11839;48.598;8.870;2024-03-23T06:50:00;9.70;99.90
23335;DHT22;11839;48.598;8.870;2024-03-23T06:52:27;9.70;99.90
23335;DHT22;11839;48.598;8.870;2024-03-23T06:54:54;9.70;99.90
23335;DHT22;11839;48.598;8.870;2024-03-23T06:57:21;10.00;99.90
23335;DHT22;11839;48.598;8.870;2024-03-23T06:59:48;10.00;99.90
23335;DHT22;11839;48.598;8.870;2024-03-23T07:02:13;9.70;99.90
23335;DHT22;11839;48.598;8.870;2024-03-23T07:04:41;9.80;99.90
23335;DHT22;11839;48.598;8.870;2024-03-23T07:07:07;10.10;99.90
23335;DHT22;11839;48.598;8.870;2024-03-23T07:09:33;10.00;99.90
23335;DHT22;11839;48.598;8.870;2024-03-23T07:11:59;10.30;99.90
23335;DHT22;11839;48.598;8.870;2024-03-23T07:14:27;10.30;99.90
23335;DHT22;11839;48.598;8.870;2024-03-23T07:16:54;10.10;99.90
23335;DHT22;11839;48.598;8.870;2024-03-23T07:19:20;10.20;99.90
23335;DHT22;11839;48.598;8.870;2024-03-23T07:21:47;10.50;99.90
23335;DHT22;11839;48.598;8.870;2024-03-23T07:24:13;10.50;99.90
23335;DHT22;11839;48.598;8.870;2024-03-23T07:26:40;10.40;99.90
23335;DHT22;11839;48.598;8.870;2024-03-23T07:29:06;10.40;99.90
23335;DHT22;11839;48.598;8.870;2024-03-23T07:31:34;10.50;99.90
23335;DHT22;11839;48.598;8.870;2024-03-23T07:34:00;10.20;99.90
23335;DHT22;11839;48.598;8.870;2024-03-23T07:36:27;10.00;99.90
23335;DHT22;11839;48.598;8.870;2024-03-23T07:38:53;9.90;99.90
23335;DHT22;11839;48.598;8.870;2024-03-23T07:41:20;9.50;99.90
23335;DHT22;11839;48.598;8.870;2024-03-23T07:43:47;9.40;99.90
23335;DHT22;11839;48.598;8.870;2024-03-23T07:46:15;9.60;99.90
23335;DHT22;11839;48.598;8.870;2024-03-23T07:48:42;9.50;99.90
23335;DHT22;11839;48.598;8.870;2024-03-23T07:51:11;9.60;99.90
23335;DHT22;11839;48.598;8.870;2024-03-23T07:53:37;9.80;99.90
23335;DHT22;11839;48.598;8.870;2024-03-23T07:56:06;9.70;99.90
23335;DHT22;11839;48.598;8.870;2024-03-23T07:58:32;9.60;99.90
23335;DHT22;11839;48.598;8.870;2024-03-23T08:01:04;9.70;99.90
23335;DHT22;11839;48.598;8.870;2024-03-23T08:03:30;9.60;99.90
23335;DHT22;11839;48.598;8.870;2024-03-23T08:05:58;9.50;99.90
23335;DHT22;11839;48.598;8.870;2024-03-23T08:08:31;9.40;99.90
23335;DHT22;11839;48.598;8.870;2024-03-23T08:10:58;9.60;99.90
23335;DHT22;11839;48.598;8.870;2024-03-23T08:13:24;9.70;99.90
23335;DHT22;11839;48.598;8.870;2024-03-23T08:15:50;9.80;99.90
23335;DHT22;11839;48.598;8.870;2024-03-23T08:18:16;9.80;99.90
23335;DHT22;11839;48.598;8.870;2024-03-23T08:20:43;9.60;99.90
23335;DHT22;11839;48.598;8.870;2024-03-23T08:23:10;9.40;99.90
23335;DHT22;11839;48.598;8.870;2024-03-23T08:25:37;9.40;99.90
23335;DHT22;11839;48.598;8.870;2024-03-23T08:28:03;9.50;99.90
23335;DHT22;11839;48.598;8.870;2024-03-23T08:30:29;9.80;99.90
23335;DHT22;11839;48.598;8.870;2024-03-23T08:32:55;10.10;99.90
23335;DHT22;11839;48.598;8.870;2024-03-23T08:35:22;10.20;99.90
23335;DHT22;11839;48.598;8.870;2024-03-23T08:37:48;10.00;99.90
23335;DHT22;11839;48.598;8.870;2024-03-23T08:40:16;9.70;99.90
23335;DHT22;11839;48.598;8.870;2024-03-23T08:42:41;9.80;99.90
23335;DHT22;11839;48.598;8.870;2024-03-23T08:45:09;9.60;99.90
23335;DHT22;11839;48.598;8.870;2024-03-23T08:47:35;9.40;99.90
23335;DHT22;11839;48.598;8.870;2024-03-23T08:50:02;9.40;99.90
23335;DHT22;11839;48.598;8.870;2024-03-23T08:52:28;9.40;99.90
23335;DHT22;11839;48.598;8.870;2024-03-23T08:54:55;9.30;99.90
23335;DHT22;11839;48.598;8.870;2024-03-23T08:57:23;9.20;99.90
23335;DHT22;11839;48.598;8.870;2024-03-23T08:59:50;9.20;99.90
23335;DHT22;11839;48.598;8.870;2024-03-23T09:02:15;9.40;99.90
23335;DHT22;11839;48.598;8.870;2024-03-23T09:04:43;9.60;99.90
23335;DHT22;11839;48.598;8.870;2024-03-23T09:07:09;9.60;99.90
23335;DHT22;11839;48.598;8.870;2024-03-23T09:09:38;9.40;99.90
23335;DHT22;11839;48.598;8.870;2024-03-23T09:12:04;9.40;99.90
23335;DHT22;11839;48.598;8.870;2024-03-23T09:14:32;9.70;99.90
23335;DHT22;11839;48.598;8.870;2024-03-23T09:16:58;10.30;99.90
23335;DHT22;11839;48.598;8.870;2024-03-23T09:19:27;10.50;99.90
23335;DHT22;11839;48.598;8.870;2024-03-23T09:21:53;10.40;99.90
23335;DHT22;11839;48.598;8.870;2024-03-23T09:24:20;10.00;99.90
23335;DHT22;11839;48.598;8.870;2024-03-23T09:26:46;10.00;99.90
23335;DHT22;11839;48.598;8.870;2024-03-23T09:29:13;10.30;99.90
23335;DHT22;11839;48.598;8.870;2024-03-23T09:31:40;9.80;99.90
23335;DHT22;11839;48.598;8.870;2024-03-23T09:34:07;9.80;99.90
23335;DHT22;11839;48.598;8.870;2024-03-23T09:36:33;9.30;99.90
23335;DHT22;11839;48.598;8.870;2024-03-23T09:38:59;8.80;99.90
23335;DHT22;11839;48.598;8.870;2024-03-23T09:41:25;8.30;99.90
23335;DHT22;11839;48.598;8.870;2024-03-23T09:43:52;8.50;99.90
23335;DHT22;11839;48.598;8.870;2024-03-23T09:46:18;8.60;99.90
23335;DHT22;11839;48.598;8.870;2024-03-23T09:48:48;8.80;99.90
23335;DHT22;11839;48.598;8.870;2024-03-23T09:51:14;9.10;99.90
23335;DHT22;11839;48.598;8.870;2024-03-23T09:53:40;9.10;99.90
23335;DHT22;11839;48.598;8.870;2024-03-23T09:56:07;9.30;99.90
23335;DHT22;11839;48.598;8.870;2024-03-23T09:58:34;9.50;99.90
23335;DHT22;11839;48.598;8.870;2024-03-23T10:01:01;9.40;99.90
23335;DHT22;11839;48.598;8.870;2024-03-23T10:03:28;9.20;99.90
23335;DHT22;11839;48.598;8.870;2024-03-23T10:06:05;9.60;99.90
23335;DHT22;11839;48.598;8.870;2024-03-23T10:08:31;9.90;99.90
23335;DHT22;11839;48.598;8.870;2024-03-23T10:11:12;10.00;99.90
23335;DHT22;11839;48.598;8.870;2024-03-23T10:13:41;10.50;99.90
23335;DHT22;11839;48.598;8.870;2024-03-23T10:16:08;10.90;99.90
23335;DHT22;11839;48.598;8.870;2024-03-23T10:18:37;11.30;99.90
23335;DHT22;11839;48.598;8.870;2024-03-23T10:21:09;11.20;99.90
23335;DHT22;11839;48.598;8.870;2024-03-23T10:23:37;11.80;99.90
23335;DHT22;11839;48.598;8.870;2024-03-23T10:26:17;12.20;99.90
23335;DHT22;11839;48.598;8.870;2024-03-23T10:28:54;12.50;99.90
23335;DHT22;11839;48.598;8.870;2024-03-23T10:31:22;12.30;99.90
23335;DHT22;11839;48.598;8.870;2024-03-23T10:33:49;12.40;99.90
23335;DHT22;11839;48.598;8.870;2024-03-23T10:36:17;12.30;99.90
23335;DHT22;11839;48.598;8.870;2024-03-23T10:38:46;11.80;99.90
23335;DHT22;11839;48.598;8.870;2024-03-23T10:41:12;10.20;99.90
23335;DHT22;11839;48.598;8.870;2024-03-23T10:43:39;7.30;99.90
23335;DHT22;11839;48.598;8.870;2024-03-23T10:46:05;6.40;99.90
23335;DHT22;11839;48.598;8.870;2024-03-23T10:48:32;6.40;99.90
23335;DHT22;11839;48.598;8.870;2024-03-23T10:50:58;6.80;99.90
23335;DHT22;11839;48.598;8.870;2024-03-23T10:53:27;6.80;99.90
23335;DHT22;11839;48.598;8.870;2024-03-23T10:55:54;7.10;99.90
23335;DHT22;11839;48.598;8.870;2024-03-23T10:58:24;7.50;99.90
23335;DHT22;11839;48.598;8.870;2024-03-23T11:00:52;7.80;99.90
23335;DHT22;11839;48.598;8.870;2024-03-23T11:03:35;8.00;99.90
23335;DHT22;11839;48.598;8.870;2024-03-23T11:06:03;8.60;99.90
23335;DHT22;11839;48.598;8.870;2024-03-23T11:08:32;9.20;99.90
23335;DHT22;11839;48.598;8.870;2024-03-23T11:11:28;9.70;99.90
23335;DHT22;11839;48.598;8.870;2024-03-23T11:13:59;9.80;99.90
23335;DHT22;11839;48.598;8.870;2024-03-23T11:16:26;9.90;99.90
23335;DHT22;11839;48.598;8.870;2024-03-23T11:19:35;10.00;99.90
23335;DHT22;11839;48.598;8.870;2024-03-23T11:22:02;10.50;99.90
23335;DHT22;11839;48.598;8.870;2024-03-23T11:24:29;10.40;99.90
23335;DHT22;11839;48.598;8.870;2024-03-23T11:26:54;10.50;99.90
23335;DHT22;11839;48.598;8.870;2024-03-23T11:29:21;10.00;99.90
23335;DHT22;11839;48.598;8.870;2024-03-23T11:31:49;10.00;99.90
23335;DHT22;11839;48.598;8.870;2024-03-23T11:34:16;9.70;99.90
23335;DHT22;11839;48.598;8.870;2024-03-23T11:36:44;9.70;99.90
23335;DHT22;11839;48.598;8.870;2024-03-23T11:39:14;9.70;99.90
23335;DHT22;11839;48.598;8.870;2024-03-23T11:41:48;10.30;99.90
23335;DHT22;11839;48.598;8.870;2024-03-23T11:44:16;10.20;99.90
23335;DHT22;11839;48.598;8.870;2024-03-23T11:46:42;10.30;99.90
23335;DHT22;11839;48.598;8.870;2024-03-23T11:49:20;10.60;99.90
23335;DHT22;11839;48.598;8.870;2024-03-23T11:51:48;10.40;99.90
23335;DHT22;11839;48.598;8.870;2024-03-23T11:54:15;10.80;99.90
23335;DHT22;11839;48.598;8.870;2024-03-23T11:56:54;10.40;99.90
23335;DHT22;11839;48.598;8.870;2024-03-23T11:59:31;10.30;99.90
23335;DHT22;11839;48.598;8.870;2024-03-23T12:01:57;10.50;99.90
23335;DHT22;11839;48.598;8.870;2024-03-23T12:04:26;10.70;99.90
23335;DHT22;11839;48.598;8.870;2024-03-23T12:07:09;10.80;99.90
23335;DHT22;11839;48.598;8.870;2024-03-23T12:09:36;10.70;99.90
23335;DHT22;11839;48.598;8.870;2024-03-23T12:12:07;11.10;99.90
23335;DHT22;11839;48.598;8.870;2024-03-23T12:14:33;11.10;99.90
23335;DHT22;11839;48.598;8.870;2024-03-23T12:17:08;11.10;99.90
23335;DHT22;11839;48.598;8.870;2024-03-23T12:19:36;11.00;99.90
23335;DHT22;11839;48.598;8.870;2024-03-23T12:22:04;10.90;99.90
23335;DHT22;11839;48.598;8.870;2024-03-23T12:24:31;11.30;99.90
23335;DHT22;11839;48.598;8.870;2024-03-23T12:27:00;11.40;99.90
23335;DHT22;11839;48.598;8.870;2024-03-23T12:29:29;11.10;99.90
23335;DHT22;11839;48.598;8.870;2024-03-23T12:31:55;10.90;99.90
23335;DHT22;11839;48.598;8.870;2024-03-23T12:34:24;11.00;99.90
23335;DHT22;11839;48.598;8.870;2024-03-23T12:36:50;11.10;99.90
23335;DHT22;11839;48.598;8.870;2024-03-23T12:39:18;11.60;99.90
23335;DHT22;11839;48.598;8.870;2024-03-23T12:41:46;12.30;99.90
23335;DHT22;11839;48.598;8.870;2024-03-23T12:44:12;11.70;99.90
23335;DHT22;11839;48.598;8.870;2024-03-23T12:46:39;11.70;99.90
23335;DHT22;11839;48.598;8.870;2024-03-23T12:49:06;11.50;99.90
23335;DHT22;11839;48.598;8.870;2024-03-23T12:51:33;11.60;99.90
23335;DHT22;11839;48.598;8.870;2024-03-23T12:53:59;11.40;99.90
23335;DHT22;11839;48.598;8.870;2024-03-23T12:56:27;11.40;99.90
23335;DHT22;11839;48.598;8.870;2024-03-23T12:58:53;11.50;99.90
23335;DHT22;11839;48.598;8.870;2024-03-23T13:01:22;11.00;99.90
23335;DHT22;11839;48.598;8.870;2024-03-23T13:03:48;9.50;99.90
23335;DHT22;11839;48.598;8.870;2024-03-23T13:06:16;8.20;99.90
23335;DHT22;11839;48.598;8.870;2024-03-23T13:08:43;7.00;99.90
23335;DHT22;11839;48.598;8.870;2024-03-23T13:11:10;6.90;99.90
23335;DHT22;11839;48.598;8.870;2024-03-23T13:13:37;7.30;99.90
23335;DHT22;11839;48.598;8.870;2024-03-23T13:16:05;7.30;99.90
23335;DHT22;11839;48.598;8.870;2024-03-23T13:18:32;7.60;99.90
23335;DHT22;11839;48.598;8.870;2024-03-23T13:20:59;8.10;99.90
23335;DHT22;11839;48.598;8.870;2024-03-23T13:23:25;8.50;99.90
23335;DHT22;11839;48.598;8.870;2024-03-23T13:25:53;9.10;99.90
23335;DHT22;11839;48.598;8.870;2024-03-23T13:28:19;9.10;99.90
23335;DHT22;11839;48.598;8.870;2024-03-23T13:30:54;9.50;99.90
23335;DHT22;11839;48.598;8.870;2024-03-23T13:33:21;9.60;99.90
23335;DHT22;11839;48.598;8.870;2024-03-23T13:35:51;9.60;99.90
23335;DHT22;11839;48.598;8.870;2024-03-23T13:38:17;9.60;99.90
23335;DHT22;11839;48.598;8.870;2024-03-23T13:40:53;9.80;99.90
23335;DHT22;11839;48.598;8.870;2024-03-23T13:43:21;10.20;99.90
23335;DHT22;11839;48.598;8.870;2024-03-23T13:45:47;10.60;99.90
23335;DHT22;11839;48.598;8.870;2024-03-23T13:48:16;10.60;99.90
23335;DHT22;11839;48.598;8.870;2024-03-23T13:50:43;11.20;99.90
23335;DHT22;11839;48.598;8.870;2024-03-23T13:53:10;11.10;99.90
23335;DHT22;11839;48.598;8.870;2024-03-23T13:55:36;11.10;99.90
23335;DHT22;11839;48.598;8.870;2024-03-23T13:58:02;10.70;99.90
23335;DHT22;11839;48.598;8.870;2024-03-23T14:00:29;10.40;99.90
23335;DHT22;11839;48.598;8.870;2024-03-23T14:02:57;10.10;99.90
23335;DHT22;11839;48.598;8.870;2024-03-23T14:05:25;9.60;99.90
23335;DHT22;11839;48.598;8.870;2024-03-23T14:07:51;9.70;99.90
23335;DHT22;11839;48.598;8.870;2024-03-23T14:10:17;9.60;99.90
23335;DHT22;11839;48.598;8.870;2024-03-23T14:12:44;9.70;99.90
23335;DHT22;11839;48.598;8.870;2024-03-23T14:15:10;9.70;99.90
23335;DHT22;11839;48.598;8.870;2024-03-23T14:17:36;9.90;99.90
23335;DHT22;11839;48.598;8.870;2024-03-23T14:20:03;10.00;99.90
23335;DHT22;11839;48.598;8.870;2024-03-23T14:22:32;11.00;99.90
23335;DHT22;11839;48.598;8.870;2024-03-23T14:24:58;11.40;99.90
23335;DHT22;11839;48.598;8.870;2024-03-23T14:27:24;11.20;99.90
23335;DHT22;11839;48.598;8.870;2024-03-23T14:29:50;10.70;99.90
23335;DHT22;11839;48.598;8.870;2024-03-23T14:32:17;10.70;99.90
23335;DHT22;11839;48.598;8.870;2024-03-23T14:34:43;10.40;99.90
23335;DHT22;11839;48.598;8.870;2024-03-23T14:37:09;10.10;99.90
23335;DHT22;11839;48.598;8.870;2024-03-23T14:39:36;9.90;99.90
23335;DHT22;11839;48.598;8.870;2024-03-23T14:42:05;10.10;99.90
23335;DHT22;11839;48.598;8.870;2024-03-23T14:44:32;10.00;99.90
23335;DHT22;11839;48.598;8.870;2024-03-23T14:46:58;10.00;99.90
23335;DHT22;11839;48.598;8.870;2024-03-23T14:49:25;9.40;99.90
23335;DHT22;11839;48.598;8.870;2024-03-23T14:51:52;9.40;99.90
23335;DHT22;11839;48.598;8.870;2024-03-23T14:54:17;9.40;99.90
23335;DHT22;11839;48.598;8.870;2024-03-23T14:56:45;9.40;99.90
23335;DHT22;11839;48.598;8.870;2024-03-23T14:59:13;9.40;99.90
23335;DHT22;11839;48.598;8.870;2024-03-23T15:01:39;9.20;99.90
23335;DHT22;11839;48.598;8.870;2024-03-23T15:04:05;9.30;99.90
23335;DHT22;11839;48.598;8.870;2024-03-23T15:06:32;9.50;99.90
23335;DHT22;11839;48.598;8.870;2024-03-23T15:08:59;9.80;99.90
23335;DHT22;11839;48.598;8.870;2024-03-23T15:11:25;9.90;99.90
23335;DHT22;11839;48.598;8.870;2024-03-23T15:13:52;10.00;99.90
23335;DHT22;11839;48.598;8.870;2024-03-23T15:16:20;10.00;99.90
23335;DHT22;11839;48.598;8.870;2024-03-23T15:18:46;10.70;99.90
23335;DHT22;11839;48.598;8.870;2024-03-23T15:21:17;10.90;99.90
23335;DHT22;11839;48.598;8.870;2024-03-23T15:23:47;10.70;99.90
23335;DHT22;11839;48.598;8.870;2024-03-23T15:26:14;10.30;99.90
23335;DHT22;11839;48.598;8.870;2024-03-23T15:28:41;10.30;99.90
23335;DHT22;11839;48.598;8.870;2024-03-23T15:31:29;10.20;99.90
23335;DHT22;11839;48.598;8.870;2024-03-23T15:33:55;9.80;99.90
23335;DHT22;11839;48.598;8.870;2024-03-23T15:36:22;9.70;99.90
23335;DHT22;11839;48.598;8.870;2024-03-23T15:38:48;9.80;99.90
23335;DHT22;11839;48.598;8.870;2024-03-23T15:41:15;9.20;99.90
23335;DHT22;11839;48.598;8.870;2024-03-23T15:43:41;9.00;99.90
23335;DHT22;11839;48.598;8.870;2024-03-23T15:46:08;8.90;99.90
23335;DHT22;11839;48.598;8.870;2024-03-23T15:48:40;8.90;99.90
23335;DHT22;11839;48.598;8.870;2024-03-23T15:51:11;8.90;99.90
23335;DHT22;11839;48.598;8.870;2024-03-23T15:53:37;8.80;99.90
23335;DHT22;11839;48.598;8.870;2024-03-23T15:56:05;8.90;99.90
23335;DHT22;11839;48.598;8.870;2024-03-23T15:58:34;9.10;99.90
23335;DHT22;11839;48.598;8.870;2024-03-23T16:01:02;8.70;99.90
23335;DHT22;11839;48.598;8.870;2024-03-23T16:03:28;8.40;99.90
23335;DHT22;11839;48.598;8.870;2024-03-23T16:05:58;8.10;99.90
23335;DHT22;11839;48.598;8.870;2024-03-23T16:08:24;7.90;99.90
23335;DHT22;11839;48.598;8.870;2024-03-23T16:10:51;8.00;99.90
23335;DHT22;11839;48.598;8.870;2024-03-23T16:13:18;7.40;99.90
23335;DHT22;11839;48.598;8.870;2024-03-23T16:15:45;7.30;99.90
23335;DHT22;11839;48.598;8.870;2024-03-23T16:18:11;7.90;99.90
23335;DHT22;11839;48.598;8.870;2024-03-23T16:20:38;8.10;99.90
23335;DHT22;11839;48.598;8.870;2024-03-23T16:23:05;8.40;99.90
23335;DHT22;11839;48.598;8.870;2024-03-23T16:25:32;8.60;99.90
23335;DHT22;11839;48.598;8.870;2024-03-23T16:27:58;8.90;99.90
23335;DHT22;11839;48.598;8.870;2024-03-23T16:30:24;9.40;99.90
23335;DHT22;11839;48.598;8.870;2024-03-23T16:32:50;9.20;99.90